sensor_id;sensor_type;location;lat;lon;timestamp;P1;durP1;ratioP1;P2;durP2;ratioP2
16775;SDS011;8505;49.456;8.164;2023-04-25T00:01:57;5.50;;;3.70;;
16775;SDS011;8505;49.456;8.164;2023-04-25T00:04:26;6.67;;;4.37;;
16775;SDS011;8505;49.456;8.164;2023-04-25T00:06:56;7.00;;;4.00;;
16775;SDS011;8505;49.456;8.164;2023-04-25T00:09:25;6.18;;;3.90;;
16775;SDS011;8505;49.456;8.164;2023-04-25T00:11:54;6.55;;;4.25;;
16775;SDS011;8505;49.456;8.164;2023-04-25T00:14:22;4.90;;;3.80;;
16775;SDS011;8505;49.456;8.164;2023-04-25T00:16:49;5.90;;;3.83;;
16775;SDS011;8505;49.456;8.164;2023-04-25T00:19:17;5.43;;;3.83;;
16775;SDS011;8505;49.456;8.164;2023-04-25T00:21:45;4.30;;;3.70;;
16775;SDS011;8505;49.456;8.164;2023-04-25T00:24:13;4.72;;;3.53;;
16775;SDS011;8505;49.456;8.164;2023-04-25T00:26:42;4.85;;;3.60;;
16775;SDS011;8505;49.456;8.164;2023-04-25T00:29:10;5.10;;;3.60;;
16775;SDS011;8505;49.456;8.164;2023-04-25T00:31:38;5.18;;;3.60;;
16775;SDS011;8505;49.456;8.164;2023-04-25T00:34:06;4.88;;;3.40;;
16775;SDS011;8505;49.456;8.164;2023-04-25T00:36:34;4.55;;;3.40;;
16775;SDS011;8505;49.456;8.164;2023-04-25T00:39:02;5.55;;;3.15;;
16775;SDS011;8505;49.456;8.164;2023-04-25T00:41:30;4.28;;;3.17;;
16775;SDS011;8505;49.456;8.164;2023-04-25T00:43:59;4.15;;;3.13;;
16775;SDS011;8505;49.456;8.164;2023-04-25T00:46:29;4.63;;;3.10;;
16775;SDS011;8505;49.456;8.164;2023-04-25T00:48:58;3.97;;;3.00;;
16775;SDS011;8505;49.456;8.164;2023-04-25T00:51:25;4.30;;;3.38;;
16775;SDS011;8505;49.456;8.164;2023-04-25T00:53:53;5.53;;;3.70;;
16775;SDS011;8505;49.456;8.164;2023-04-25T00:56:21;5.47;;;3.75;;
16775;SDS011;8505;49.456;8.164;2023-04-25T00:58:49;6.60;;;3.90;;
16775;SDS011;8505;49.456;8.164;2023-04-25T01:01:21;4.85;;;4.00;;
16775;SDS011;8505;49.456;8.164;2023-04-25T01:03:49;5.60;;;4.30;;
16775;SDS011;8505;49.456;8.164;2023-04-25T01:06:18;5.53;;;4.28;;
16775;SDS011;8505;49.456;8.164;2023-04-25T01:08:46;5.30;;;4.15;;
16775;SDS011;8505;49.456;8.164;2023-04-25T01:11:15;6.10;;;4.40;;
16775;SDS011;8505;49.456;8.164;2023-04-25T01:13:42;6.63;;;4.57;;
16775;SDS011;8505;49.456;8.164;2023-04-25T01:16:10;7.10;;;5.32;;
16775;SDS011;8505;49.456;8.164;2023-04-25T01:18:39;7.25;;;5.60;;
16775;SDS011;8505;49.456;8.164;2023-04-25T01:21:10;7.72;;;5.78;;
16775;SDS011;8505;49.456;8.164;2023-04-25T01:23:39;7.30;;;5.82;;
16775;SDS011;8505;49.456;8.164;2023-04-25T01:26:08;8.13;;;5.87;;
16775;SDS011;8505;49.456;8.164;2023-04-25T01:28:37;7.32;;;5.63;;
16775;SDS011;8505;49.456;8.164;2023-04-25T01:31:07;7.95;;;6.05;;
16775;SDS011;8505;49.456;8.164;2023-04-25T01:33:37;7.68;;;5.85;;
16775;SDS011;8505;49.456;8.164;2023-04-25T01:36:05;7.75;;;6.00;;
16775;SDS011;8505;49.456;8.164;2023-04-25T01:38:34;8.13;;;6.10;;
16775;SDS011;8505;49.456;8.164;2023-04-25T01:41:03;8.48;;;5.93;;
16775;SDS011;8505;49.456;8.164;2023-04-25T01:43:31;9.23;;;6.28;;
16775;SDS011;8505;49.456;8.164;2023-04-25T01:45:58;9.60;;;6.78;;
16775;SDS011;8505;49.456;8.164;2023-04-25T01:48:27;7.72;;;6.28;;
16775;SDS011;8505;49.456;8.164;2023-04-25T01:50:54;8.48;;;6.80;;
16775;SDS011;8505;49.456;8.164;2023-04-25T01:53:22;8.98;;;6.85;;
16775;SDS011;8505;49.456;8.164;2023-04-25T01:55:52;9.52;;;7.07;;
16775;SDS011;8505;49.456;8.164;2023-04-25T01:58:20;10.25;;;6.82;;
16775;SDS011;8505;49.456;8.164;2023-04-25T02:00:48;9.67;;;6.93;;
16775;SDS011;8505;49.456;8.164;2023-04-25T02:03:16;8.77;;;6.80;;
16775;SDS011;8505;49.456;8.164;2023-04-25T02:05:44;7.25;;;5.97;;
16775;SDS011;8505;49.456;8.164;2023-04-25T02:08:11;8.65;;;6.15;;
16775;SDS011;8505;49.456;8.164;2023-04-25T02:10:40;8.93;;;6.47;;
16775;SDS011;8505;49.456;8.164;2023-04-25T02:13:09;7.07;;;5.60;;
16775;SDS011;8505;49.456;8.164;2023-04-25T02:15:37;8.45;;;5.95;;
16775;SDS011;8505;49.456;8.164;2023-04-25T02:18:05;8.07;;;6.27;;
16775;SDS011;8505;49.456;8.164;2023-04-25T02:20:34;7.57;;;5.40;;
16775;SDS011;8505;49.456;8.164;2023-04-25T02:23:02;7.68;;;5.47;;
16775;SDS011;8505;49.456;8.164;2023-04-25T02:25:30;7.07;;;5.30;;
16775;SDS011;8505;49.456;8.164;2023-04-25T02:27:57;6.53;;;5.25;;
16775;SDS011;8505;49.456;8.164;2023-04-25T02:30:27;6.95;;;5.57;;
16775;SDS011;8505;49.456;8.164;2023-04-25T02:32:54;7.40;;;5.70;;
16775;SDS011;8505;49.456;8.164;2023-04-25T02:35:22;7.60;;;5.70;;
16775;SDS011;8505;49.456;8.164;2023-04-25T02:37:50;7.90;;;5.93;;
16775;SDS011;8505;49.456;8.164;2023-04-25T02:40:18;7.72;;;5.65;;
16775;SDS011;8505;49.456;8.164;2023-04-25T02:42:46;7.90;;;5.90;;
16775;SDS011;8505;49.456;8.164;2023-04-25T02:45:14;7.32;;;5.90;;
16775;SDS011;8505;49.456;8.164;2023-04-25T02:47:43;8.10;;;5.82;;
16775;SDS011;8505;49.456;8.164;2023-04-25T02:50:10;7.37;;;5.60;;
16775;SDS011;8505;49.456;8.164;2023-04-25T02:52:38;7.95;;;5.97;;
16775;SDS011;8505;49.456;8.164;2023-04-25T02:55:06;8.05;;;5.80;;
16775;SDS011;8505;49.456;8.164;2023-04-25T02:57:34;6.87;;;5.50;;
16775;SDS011;8505;49.456;8.164;2023-04-25T03:00:02;9.20;;;6.30;;
16775;SDS011;8505;49.456;8.164;2023-04-25T03:02:32;8.48;;;6.30;;
16775;SDS011;8505;49.456;8.164;2023-04-25T03:05:01;8.35;;;6.07;;
16775;SDS011;8505;49.456;8.164;2023-04-25T03:07:29;7.30;;;5.70;;
16775;SDS011;8505;49.456;8.164;2023-04-25T03:09:57;8.05;;;5.95;;
16775;SDS011;8505;49.456;8.164;2023-04-25T03:12:25;8.43;;;5.97;;
16775;SDS011;8505;49.456;8.164;2023-04-25T03:14:52;7.05;;;5.70;;
16775;SDS011;8505;49.456;8.164;2023-04-25T03:17:20;8.07;;;6.10;;
16775;SDS011;8505;49.456;8.164;2023-04-25T03:19:48;8.70;;;6.20;;
16775;SDS011;8505;49.456;8.164;2023-04-25T03:22:17;9.32;;;6.32;;
16775;SDS011;8505;49.456;8.164;2023-04-25T03:24:45;8.60;;;6.43;;
16775;SDS011;8505;49.456;8.164;2023-04-25T03:27:13;9.18;;;6.50;;
16775;SDS011;8505;49.456;8.164;2023-04-25T03:29:41;9.15;;;6.70;;
16775;SDS011;8505;49.456;8.164;2023-04-25T03:32:08;9.35;;;6.40;;
16775;SDS011;8505;49.456;8.164;2023-04-25T03:34:36;9.10;;;6.47;;
16775;SDS011;8505;49.456;8.164;2023-04-25T03:37:04;9.18;;;6.75;;
16775;SDS011;8505;49.456;8.164;2023-04-25T03:39:33;9.73;;;7.17;;
16775;SDS011;8505;49.456;8.164;2023-04-25T03:42:01;9.00;;;6.70;;
16775;SDS011;8505;49.456;8.164;2023-04-25T03:44:29;9.43;;;6.43;;
16775;SDS011;8505;49.456;8.164;2023-04-25T03:46:57;10.23;;;6.70;;
16775;SDS011;8505;49.456;8.164;2023-04-25T03:49:24;8.77;;;6.40;;
16775;SDS011;8505;49.456;8.164;2023-04-25T03:51:52;8.65;;;6.38;;
16775;SDS011;8505;49.456;8.164;2023-04-25T03:54:20;8.55;;;6.40;;
16775;SDS011;8505;49.456;8.164;2023-04-25T03:56:49;8.43;;;6.30;;
16775;SDS011;8505;49.456;8.164;2023-04-25T03:59:17;9.70;;;6.15;;
16775;SDS011;8505;49.456;8.164;2023-04-25T04:01:44;10.07;;;6.40;;
16775;SDS011;8505;49.456;8.164;2023-04-25T04:04:12;8.98;;;6.53;;
16775;SDS011;8505;49.456;8.164;2023-04-25T04:06:40;10.17;;;6.70;;
16775;SDS011;8505;49.456;8.164;2023-04-25T04:09:08;8.32;;;6.22;;
16775;SDS011;8505;49.456;8.164;2023-04-25T04:11:37;8.57;;;5.90;;
16775;SDS011;8505;49.456;8.164;2023-04-25T04:14:07;9.00;;;6.53;;
16775;SDS011;8505;49.456;8.164;2023-04-25T04:16:36;8.60;;;5.97;;
16775;SDS011;8505;49.456;8.164;2023-04-25T04:19:03;8.45;;;6.15;;
16775;SDS011;8505;49.456;8.164;2023-04-25T04:21:31;8.70;;;5.93;;
16775;SDS011;8505;49.456;8.164;2023-04-25T04:23:59;7.67;;;6.00;;
16775;SDS011;8505;49.456;8.164;2023-04-25T04:26:27;8.25;;;5.55;;
16775;SDS011;8505;49.456;8.164;2023-04-25T04:28:55;7.63;;;5.53;;
16775;SDS011;8505;49.456;8.164;2023-04-25T04:31:26;7.18;;;5.82;;
16775;SDS011;8505;49.456;8.164;2023-04-25T04:33:54;8.63;;;6.20;;
16775;SDS011;8505;49.456;8.164;2023-04-25T04:36:22;8.50;;;5.97;;
16775;SDS011;8505;49.456;8.164;2023-04-25T04:38:52;9.45;;;5.82;;
16775;SDS011;8505;49.456;8.164;2023-04-25T04:41:20;8.35;;;6.30;;
16775;SDS011;8505;49.456;8.164;2023-04-25T04:43:48;8.30;;;6.38;;
16775;SDS011;8505;49.456;8.164;2023-04-25T04:46:16;8.63;;;6.28;;
16775;SDS011;8505;49.456;8.164;2023-04-25T04:48:46;8.00;;;6.22;;
16775;SDS011;8505;49.456;8.164;2023-04-25T04:51:13;9.30;;;6.13;;
16775;SDS011;8505;49.456;8.164;2023-04-25T04:53:41;9.77;;;6.67;;
16775;SDS011;8505;49.456;8.164;2023-04-25T04:56:09;10.10;;;6.68;;
16775;SDS011;8505;49.456;8.164;2023-04-25T04:58:36;9.93;;;7.30;;
16775;SDS011;8505;49.456;8.164;2023-04-25T05:01:04;10.03;;;7.00;;
16775;SDS011;8505;49.456;8.164;2023-04-25T05:03:32;9.60;;;6.47;;
16775;SDS011;8505;49.456;8.164;2023-04-25T05:06:01;9.70;;;6.67;;
16775;SDS011;8505;49.456;8.164;2023-04-25T05:08:29;9.32;;;7.15;;
16775;SDS011;8505;49.456;8.164;2023-04-25T05:10:57;9.02;;;6.85;;
16775;SDS011;8505;49.456;8.164;2023-04-25T05:13:24;9.15;;;6.80;;
16775;SDS011;8505;49.456;8.164;2023-04-25T05:15:52;9.33;;;6.77;;
16775;SDS011;8505;49.456;8.164;2023-04-25T05:18:20;8.65;;;6.70;;
16775;SDS011;8505;49.456;8.164;2023-04-25T05:20:49;9.02;;;7.15;;
16775;SDS011;8505;49.456;8.164;2023-04-25T05:23:18;10.52;;;7.20;;
16775;SDS011;8505;49.456;8.164;2023-04-25T05:25:49;10.63;;;7.10;;
16775;SDS011;8505;49.456;8.164;2023-04-25T05:28:17;9.32;;;6.72;;
16775;SDS011;8505;49.456;8.164;2023-04-25T05:30:44;8.68;;;6.70;;
16775;SDS011;8505;49.456;8.164;2023-04-25T05:33:12;9.35;;;6.70;;
16775;SDS011;8505;49.456;8.164;2023-04-25T05:35:40;9.73;;;6.65;;
16775;SDS011;8505;49.456;8.164;2023-04-25T05:38:08;9.35;;;6.50;;
16775;SDS011;8505;49.456;8.164;2023-04-25T05:40:38;8.23;;;6.43;;
16775;SDS011;8505;49.456;8.164;2023-04-25T05:43:05;9.43;;;6.75;;
16775;SDS011;8505;49.456;8.164;2023-04-25T05:45:33;8.13;;;6.20;;
16775;SDS011;8505;49.456;8.164;2023-04-25T05:48:01;9.95;;;6.68;;
16775;SDS011;8505;49.456;8.164;2023-04-25T05:50:29;8.20;;;6.37;;
16775;SDS011;8505;49.456;8.164;2023-04-25T05:52:57;9.13;;;6.40;;
16775;SDS011;8505;49.456;8.164;2023-04-25T05:55:24;9.23;;;6.63;;
16775;SDS011;8505;49.456;8.164;2023-04-25T05:57:53;9.05;;;6.43;;
16775;SDS011;8505;49.456;8.164;2023-04-25T06:00:21;8.23;;;6.18;;
16775;SDS011;8505;49.456;8.164;2023-04-25T06:02:49;9.27;;;6.40;;
16775;SDS011;8505;49.456;8.164;2023-04-25T06:05:17;8.85;;;6.78;;
16775;SDS011;8505;49.456;8.164;2023-04-25T06:07:45;9.65;;;6.88;;
16775;SDS011;8505;49.456;8.164;2023-04-25T06:10:13;9.15;;;6.90;;
16775;SDS011;8505;49.456;8.164;2023-04-25T06:12:41;8.95;;;6.70;;
16775;SDS011;8505;49.456;8.164;2023-04-25T06:15:10;11.30;;;7.28;;
16775;SDS011;8505;49.456;8.164;2023-04-25T06:17:53;10.63;;;6.82;;
16775;SDS011;8505;49.456;8.164;2023-04-25T06:20:21;9.80;;;6.25;;
16775;SDS011;8505;49.456;8.164;2023-04-25T06:22:50;10.35;;;6.70;;
16775;SDS011;8505;49.456;8.164;2023-04-25T06:25:19;8.00;;;6.20;;
16775;SDS011;8505;49.456;8.164;2023-04-25T06:27:49;8.93;;;6.38;;
16775;SDS011;8505;49.456;8.164;2023-04-25T06:30:18;9.45;;;6.47;;
16775;SDS011;8505;49.456;8.164;2023-04-25T06:32:48;9.88;;;6.78;;
16775;SDS011;8505;49.456;8.164;2023-04-25T06:35:16;10.68;;;7.45;;
16775;SDS011;8505;49.456;8.164;2023-04-25T06:37:44;10.43;;;7.78;;
16775;SDS011;8505;49.456;8.164;2023-04-25T06:40:12;12.43;;;7.82;;
16775;SDS011;8505;49.456;8.164;2023-04-25T06:42:40;10.80;;;7.95;;
16775;SDS011;8505;49.456;8.164;2023-04-25T06:45:08;10.55;;;7.90;;
16775;SDS011;8505;49.456;8.164;2023-04-25T06:47:38;11.82;;;7.75;;
16775;SDS011;8505;49.456;8.164;2023-04-25T06:50:06;11.43;;;8.50;;
16775;SDS011;8505;49.456;8.164;2023-04-25T06:52:34;11.02;;;8.27;;
16775;SDS011;8505;49.456;8.164;2023-04-25T06:55:02;12.02;;;8.20;;
16775;SDS011;8505;49.456;8.164;2023-04-25T06:57:31;15.40;;;8.40;;
16775;SDS011;8505;49.456;8.164;2023-04-25T06:59:59;16.25;;;7.15;;
16775;SDS011;8505;49.456;8.164;2023-04-25T07:02:27;16.38;;;8.38;;
16775;SDS011;8505;49.456;8.164;2023-04-25T07:04:57;19.02;;;7.78;;
16775;SDS011;8505;49.456;8.164;2023-04-25T07:07:26;19.05;;;8.38;;
16775;SDS011;8505;49.456;8.164;2023-04-25T07:09:53;17.73;;;8.25;;
16775;SDS011;8505;49.456;8.164;2023-04-25T07:12:21;17.73;;;8.55;;
16775;SDS011;8505;49.456;8.164;2023-04-25T07:14:49;18.52;;;7.90;;
16775;SDS011;8505;49.456;8.164;2023-04-25T07:17:17;15.98;;;7.50;;
16775;SDS011;8505;49.456;8.164;2023-04-25T07:19:44;16.50;;;7.68;;
16775;SDS011;8505;49.456;8.164;2023-04-25T07:22:13;17.77;;;6.90;;
16775;SDS011;8505;49.456;8.164;2023-04-25T07:24:41;15.60;;;6.47;;
16775;SDS011;8505;49.456;8.164;2023-04-25T07:27:09;15.32;;;6.65;;
16775;SDS011;8505;49.456;8.164;2023-04-25T07:29:36;16.63;;;7.05;;
16775;SDS011;8505;49.456;8.164;2023-04-25T07:32:04;18.75;;;7.18;;
16775;SDS011;8505;49.456;8.164;2023-04-25T07:34:32;15.77;;;7.05;;
16775;SDS011;8505;49.456;8.164;2023-04-25T07:37:03;14.25;;;6.55;;
16775;SDS011;8505;49.456;8.164;2023-04-25T07:39:32;15.05;;;6.00;;
16775;SDS011;8505;49.456;8.164;2023-04-25T07:42:01;16.67;;;6.07;;
16775;SDS011;8505;49.456;8.164;2023-04-25T07:44:29;18.23;;;6.80;;
16775;SDS011;8505;49.456;8.164;2023-04-25T07:46:57;20.23;;;7.30;;
16775;SDS011;8505;49.456;8.164;2023-04-25T07:49:29;18.30;;;7.47;;
16775;SDS011;8505;49.456;8.164;2023-04-25T07:51:57;22.50;;;7.57;;
16775;SDS011;8505;49.456;8.164;2023-04-25T07:54:25;17.25;;;7.35;;
16775;SDS011;8505;49.456;8.164;2023-04-25T07:56:54;18.65;;;7.88;;
16775;SDS011;8505;49.456;8.164;2023-04-25T07:59:22;17.10;;;7.55;;
16775;SDS011;8505;49.456;8.164;2023-04-25T08:01:49;16.90;;;7.40;;
16775;SDS011;8505;49.456;8.164;2023-04-25T08:04:17;15.33;;;6.83;;
16775;SDS011;8505;49.456;8.164;2023-04-25T08:06:45;16.90;;;6.93;;
16775;SDS011;8505;49.456;8.164;2023-04-25T08:09:14;15.63;;;7.10;;
16775;SDS011;8505;49.456;8.164;2023-04-25T08:11:42;18.05;;;6.70;;
16775;SDS011;8505;49.456;8.164;2023-04-25T08:14:11;15.93;;;7.30;;
16775;SDS011;8505;49.456;8.164;2023-04-25T08:16:39;16.98;;;7.15;;
16775;SDS011;8505;49.456;8.164;2023-04-25T08:19:09;18.60;;;7.55;;
16775;SDS011;8505;49.456;8.164;2023-04-25T08:21:37;21.83;;;8.27;;
16775;SDS011;8505;49.456;8.164;2023-04-25T08:24:05;21.58;;;9.27;;
16775;SDS011;8505;49.456;8.164;2023-04-25T08:26:33;22.80;;;8.95;;
16775;SDS011;8505;49.456;8.164;2023-04-25T08:29:03;17.63;;;8.32;;
16775;SDS011;8505;49.456;8.164;2023-04-25T08:31:33;21.67;;;9.52;;
16775;SDS011;8505;49.456;8.164;2023-04-25T08:34:01;21.05;;;9.90;;
16775;SDS011;8505;49.456;8.164;2023-04-25T08:36:28;20.52;;;8.70;;
16775;SDS011;8505;49.456;8.164;2023-04-25T08:39:05;20.33;;;8.77;;
16775;SDS011;8505;49.456;8.164;2023-04-25T08:41:33;15.97;;;8.10;;
16775;SDS011;8505;49.456;8.164;2023-04-25T08:44:03;20.35;;;8.80;;
16775;SDS011;8505;49.456;8.164;2023-04-25T08:46:33;20.50;;;8.90;;
16775;SDS011;8505;49.456;8.164;2023-04-25T08:49:02;17.23;;;8.15;;
16775;SDS011;8505;49.456;8.164;2023-04-25T08:51:31;15.55;;;8.00;;
16775;SDS011;8505;49.456;8.164;2023-04-25T08:54:02;15.85;;;7.53;;
16775;SDS011;8505;49.456;8.164;2023-04-25T08:56:56;16.08;;;7.40;;
16775;SDS011;8505;49.456;8.164;2023-04-25T08:59:24;18.87;;;8.17;;
16775;SDS011;8505;49.456;8.164;2023-04-25T09:01:54;17.90;;;7.97;;
16775;SDS011;8505;49.456;8.164;2023-04-25T09:04:22;16.45;;;7.20;;
16775;SDS011;8505;49.456;8.164;2023-04-25T09:06:50;14.05;;;6.60;;
16775;SDS011;8505;49.456;8.164;2023-04-25T09:09:18;15.27;;;6.85;;
16775;SDS011;8505;49.456;8.164;2023-04-25T09:11:46;17.20;;;6.50;;
16775;SDS011;8505;49.456;8.164;2023-04-25T09:14:14;15.83;;;6.27;;
16775;SDS011;8505;49.456;8.164;2023-04-25T09:17:12;13.68;;;6.13;;
16775;SDS011;8505;49.456;8.164;2023-04-25T09:19:40;12.07;;;5.90;;
16775;SDS011;8505;49.456;8.164;2023-04-25T09:22:08;12.30;;;5.50;;
16775;SDS011;8505;49.456;8.164;2023-04-25T09:24:36;14.23;;;5.40;;
16775;SDS011;8505;49.456;8.164;2023-04-25T09:27:05;12.57;;;5.70;;
16775;SDS011;8505;49.456;8.164;2023-04-25T09:29:35;10.90;;;4.90;;
16775;SDS011;8505;49.456;8.164;2023-04-25T09:32:12;11.25;;;4.55;;
16775;SDS011;8505;49.456;8.164;2023-04-25T09:34:42;11.70;;;4.60;;
16775;SDS011;8505;49.456;8.164;2023-04-25T09:37:16;12.20;;;4.65;;
16775;SDS011;8505;49.456;8.164;2023-04-25T09:39:46;11.95;;;4.35;;
16775;SDS011;8505;49.456;8.164;2023-04-25T09:42:14;9.93;;;4.25;;
16775;SDS011;8505;49.456;8.164;2023-04-25T09:44:43;12.38;;;4.75;;
16775;SDS011;8505;49.456;8.164;2023-04-25T09:47:14;11.63;;;4.47;;
16775;SDS011;8505;49.456;8.164;2023-04-25T09:49:44;9.75;;;4.43;;
16775;SDS011;8505;49.456;8.164;2023-04-25T09:52:15;11.45;;;4.13;;
16775;SDS011;8505;49.456;8.164;2023-04-25T09:54:44;10.77;;;4.15;;
16775;SDS011;8505;49.456;8.164;2023-04-25T09:57:13;10.47;;;4.30;;
16775;SDS011;8505;49.456;8.164;2023-04-25T09:59:45;10.70;;;4.53;;
16775;SDS011;8505;49.456;8.164;2023-04-25T10:02:16;10.40;;;3.90;;
16775;SDS011;8505;49.456;8.164;2023-04-25T10:04:48;11.02;;;4.50;;
16775;SDS011;8505;49.456;8.164;2023-04-25T10:07:19;11.90;;;4.18;;
16775;SDS011;8505;49.456;8.164;2023-04-25T10:09:48;12.17;;;4.47;;
16775;SDS011;8505;49.456;8.164;2023-04-25T10:12:17;12.67;;;4.80;;
16775;SDS011;8505;49.456;8.164;2023-04-25T10:14:45;9.80;;;4.20;;
16775;SDS011;8505;49.456;8.164;2023-04-25T10:17:14;10.35;;;4.45;;
16775;SDS011;8505;49.456;8.164;2023-04-25T10:19:44;11.65;;;4.30;;
16775;SDS011;8505;49.456;8.164;2023-04-25T10:22:13;13.05;;;4.63;;
16775;SDS011;8505;49.456;8.164;2023-04-25T10:24:44;12.35;;;4.40;;
16775;SDS011;8505;49.456;8.164;2023-04-25T10:27:13;10.93;;;4.45;;
16775;SDS011;8505;49.456;8.164;2023-04-25T10:29:42;11.17;;;4.60;;
16775;SDS011;8505;49.456;8.164;2023-04-25T10:32:10;12.13;;;4.95;;
16775;SDS011;8505;49.456;8.164;2023-04-25T10:34:41;12.88;;;4.95;;
16775;SDS011;8505;49.456;8.164;2023-04-25T10:37:13;11.57;;;4.90;;
16775;SDS011;8505;49.456;8.164;2023-04-25T10:39:41;10.27;;;5.10;;
16775;SDS011;8505;49.456;8.164;2023-04-25T10:42:10;11.35;;;4.35;;
16775;SDS011;8505;49.456;8.164;2023-04-25T10:44:38;10.98;;;4.25;;
16775;SDS011;8505;49.456;8.164;2023-04-25T10:47:07;8.60;;;4.05;;
16775;SDS011;8505;49.456;8.164;2023-04-25T10:49:36;9.25;;;3.70;;
16775;SDS011;8505;49.456;8.164;2023-04-25T10:52:13;9.35;;;4.30;;
16775;SDS011;8505;49.456;8.164;2023-04-25T10:54:43;14.30;;;4.85;;
16775;SDS011;8505;49.456;8.164;2023-04-25T10:57:26;12.05;;;5.07;;
16775;SDS011;8505;49.456;8.164;2023-04-25T10:59:58;11.63;;;4.72;;
16775;SDS011;8505;49.456;8.164;2023-04-25T11:02:27;11.00;;;4.55;;
16775;SDS011;8505;49.456;8.164;2023-04-25T11:04:55;8.82;;;4.53;;
16775;SDS011;8505;49.456;8.164;2023-04-25T11:07:28;10.90;;;4.43;;
16775;SDS011;8505;49.456;8.164;2023-04-25T11:10:25;8.57;;;3.97;;
16775;SDS011;8505;49.456;8.164;2023-04-25T11:12:53;9.07;;;3.75;;
16775;SDS011;8505;49.456;8.164;2023-04-25T11:15:21;11.90;;;4.15;;
16775;SDS011;8505;49.456;8.164;2023-04-25T11:17:50;9.60;;;3.67;;
16775;SDS011;8505;49.456;8.164;2023-04-25T11:20:18;11.63;;;4.03;;
16775;SDS011;8505;49.456;8.164;2023-04-25T11:22:48;9.32;;;3.72;;
16775;SDS011;8505;49.456;8.164;2023-04-25T11:25:18;10.48;;;3.67;;
16775;SDS011;8505;49.456;8.164;2023-04-25T11:27:49;9.38;;;4.00;;
16775;SDS011;8505;49.456;8.164;2023-04-25T11:30:18;11.32;;;4.10;;
16775;SDS011;8505;49.456;8.164;2023-04-25T11:32:47;8.05;;;3.67;;
16775;SDS011;8505;49.456;8.164;2023-04-25T11:35:15;8.80;;;4.05;;
16775;SDS011;8505;49.456;8.164;2023-04-25T11:37:43;9.93;;;3.80;;
16775;SDS011;8505;49.456;8.164;2023-04-25T11:40:13;6.45;;;3.25;;
16775;SDS011;8505;49.456;8.164;2023-04-25T11:42:43;9.95;;;3.58;;
16775;SDS011;8505;49.456;8.164;2023-04-25T11:45:12;8.27;;;3.55;;
16775;SDS011;8505;49.456;8.164;2023-04-25T11:47:40;7.65;;;3.38;;
16775;SDS011;8505;49.456;8.164;2023-04-25T11:50:08;7.72;;;3.40;;
16775;SDS011;8505;49.456;8.164;2023-04-25T11:52:37;8.38;;;3.63;;
16775;SDS011;8505;49.456;8.164;2023-04-25T11:55:06;10.57;;;3.40;;
16775;SDS011;8505;49.456;8.164;2023-04-25T11:57:38;8.02;;;3.38;;
16775;SDS011;8505;49.456;8.164;2023-04-25T12:00:08;6.35;;;3.60;;
16775;SDS011;8505;49.456;8.164;2023-04-25T12:02:43;6.07;;;3.10;;
16775;SDS011;8505;49.456;8.164;2023-04-25T12:05:13;6.25;;;3.00;;
16775;SDS011;8505;49.456;8.164;2023-04-25T12:07:57;6.95;;;2.92;;
16775;SDS011;8505;49.456;8.164;2023-04-25T12:10:24;6.47;;;3.22;;
16775;SDS011;8505;49.456;8.164;2023-04-25T12:12:54;6.28;;;3.00;;
16775;SDS011;8505;49.456;8.164;2023-04-25T12:15:23;5.80;;;2.90;;
16775;SDS011;8505;49.456;8.164;2023-04-25T12:17:53;5.43;;;3.03;;
16775;SDS011;8505;49.456;8.164;2023-04-25T12:20:24;4.53;;;2.80;;
16775;SDS011;8505;49.456;8.164;2023-04-25T12:22:52;4.03;;;2.80;;
16775;SDS011;8505;49.456;8.164;2023-04-25T12:25:33;6.07;;;3.00;;
16775;SDS011;8505;49.456;8.164;2023-04-25T12:28:13;5.27;;;3.10;;
16775;SDS011;8505;49.456;8.164;2023-04-25T12:30:54;5.72;;;2.85;;
16775;SDS011;8505;49.456;8.164;2023-04-25T12:33:26;4.63;;;2.80;;
16775;SDS011;8505;49.456;8.164;2023-04-25T12:35:55;5.35;;;3.00;;
16775;SDS011;8505;49.456;8.164;2023-04-25T12:38:24;5.72;;;2.90;;
16775;SDS011;8505;49.456;8.164;2023-04-25T12:40:53;4.82;;;2.67;;
16775;SDS011;8505;49.456;8.164;2023-04-25T12:43:22;5.17;;;2.80;;
16775;SDS011;8505;49.456;8.164;2023-04-25T12:45:50;7.63;;;3.67;;
16775;SDS011;8505;49.456;8.164;2023-04-25T12:48:19;7.97;;;3.88;;
16775;SDS011;8505;49.456;8.164;2023-04-25T12:50:48;8.43;;;4.28;;
16775;SDS011;8505;49.456;8.164;2023-04-25T12:53:16;8.43;;;4.20;;
16775;SDS011;8505;49.456;8.164;2023-04-25T12:55:45;8.93;;;4.60;;
16775;SDS011;8505;49.456;8.164;2023-04-25T12:58:13;10.00;;;4.35;;
16775;SDS011;8505;49.456;8.164;2023-04-25T13:00:42;8.60;;;4.40;;
16775;SDS011;8505;49.456;8.164;2023-04-25T13:03:10;13.00;;;5.75;;
16775;SDS011;8505;49.456;8.164;2023-04-25T13:05:38;13.20;;;5.83;;
16775;SDS011;8505;49.456;8.164;2023-04-25T13:08:07;7.30;;;3.60;;
16775;SDS011;8505;49.456;8.164;2023-04-25T13:10:35;5.85;;;3.60;;
16775;SDS011;8505;49.456;8.164;2023-04-25T13:13:04;7.70;;;3.65;;
16775;SDS011;8505;49.456;8.164;2023-04-25T13:15:32;10.85;;;4.88;;
16775;SDS011;8505;49.456;8.164;2023-04-25T13:18:02;8.45;;;4.50;;
16775;SDS011;8505;49.456;8.164;2023-04-25T13:20:30;9.80;;;4.68;;
16775;SDS011;8505;49.456;8.164;2023-04-25T13:22:58;9.00;;;4.57;;
16775;SDS011;8505;49.456;8.164;2023-04-25T13:25:28;9.00;;;3.92;;
16775;SDS011;8505;49.456;8.164;2023-04-25T13:27:56;8.73;;;3.53;;
16775;SDS011;8505;49.456;8.164;2023-04-25T13:30:24;9.18;;;4.75;;
16775;SDS011;8505;49.456;8.164;2023-04-25T13:32:52;10.93;;;4.28;;
16775;SDS011;8505;49.456;8.164;2023-04-25T13:35:24;15.02;;;6.13;;
16775;SDS011;8505;49.456;8.164;2023-04-25T13:37:52;15.18;;;6.10;;
16775;SDS011;8505;49.456;8.164;2023-04-25T13:40:19;14.07;;;5.40;;
16775;SDS011;8505;49.456;8.164;2023-04-25T13:42:50;15.20;;;5.60;;
16775;SDS011;8505;49.456;8.164;2023-04-25T13:45:18;12.70;;;5.40;;
16775;SDS011;8505;49.456;8.164;2023-04-25T13:47:46;12.30;;;5.25;;
16775;SDS011;8505;49.456;8.164;2023-04-25T13:50:14;14.57;;;5.95;;
16775;SDS011;8505;49.456;8.164;2023-04-25T13:52:43;12.93;;;5.30;;
16775;SDS011;8505;49.456;8.164;2023-04-25T13:55:11;11.30;;;4.95;;
16775;SDS011;8505;49.456;8.164;2023-04-25T13:57:39;11.20;;;5.00;;
16775;SDS011;8505;49.456;8.164;2023-04-25T14:00:07;12.60;;;5.22;;
16775;SDS011;8505;49.456;8.164;2023-04-25T14:02:36;13.15;;;5.18;;
16775;SDS011;8505;49.456;8.164;2023-04-25T14:05:04;12.60;;;4.90;;
16775;SDS011;8505;49.456;8.164;2023-04-25T14:07:33;11.77;;;5.00;;
16775;SDS011;8505;49.456;8.164;2023-04-25T14:10:04;10.30;;;4.88;;
16775;SDS011;8505;49.456;8.164;2023-04-25T14:12:33;11.00;;;4.60;;
16775;SDS011;8505;49.456;8.164;2023-04-25T14:15:01;11.05;;;4.53;;
16775;SDS011;8505;49.456;8.164;2023-04-25T14:17:29;11.27;;;4.50;;
16775;SDS011;8505;49.456;8.164;2023-04-25T14:19:57;12.65;;;4.70;;
16775;SDS011;8505;49.456;8.164;2023-04-25T14:22:25;10.95;;;4.63;;
16775;SDS011;8505;49.456;8.164;2023-04-25T14:24:53;11.40;;;4.60;;
16775;SDS011;8505;49.456;8.164;2023-04-25T14:27:22;12.02;;;4.75;;
16775;SDS011;8505;49.456;8.164;2023-04-25T14:29:51;9.40;;;4.20;;
16775;SDS011;8505;49.456;8.164;2023-04-25T14:32:19;12.80;;;4.35;;
16775;SDS011;8505;49.456;8.164;2023-04-25T14:34:47;10.52;;;4.00;;
16775;SDS011;8505;49.456;8.164;2023-04-25T14:37:15;10.40;;;3.90;;
16775;SDS011;8505;49.456;8.164;2023-04-25T14:39:42;11.00;;;3.75;;
16775;SDS011;8505;49.456;8.164;2023-04-25T14:42:11;11.60;;;3.90;;
16775;SDS011;8505;49.456;8.164;2023-04-25T14:44:40;11.10;;;3.80;;
16775;SDS011;8505;49.456;8.164;2023-04-25T14:47:08;9.23;;;3.72;;
16775;SDS011;8505;49.456;8.164;2023-04-25T14:49:36;10.07;;;4.10;;
16775;SDS011;8505;49.456;8.164;2023-04-25T14:52:04;10.75;;;3.85;;
16775;SDS011;8505;49.456;8.164;2023-04-25T14:54:32;10.18;;;3.70;;
16775;SDS011;8505;49.456;8.164;2023-04-25T14:57:00;11.48;;;4.00;;
16775;SDS011;8505;49.456;8.164;2023-04-25T14:59:28;13.10;;;4.25;;
16775;SDS011;8505;49.456;8.164;2023-04-25T15:01:57;9.43;;;3.83;;
16775;SDS011;8505;49.456;8.164;2023-04-25T15:04:25;10.38;;;3.70;;
16775;SDS011;8505;49.456;8.164;2023-04-25T15:06:53;11.02;;;4.00;;